Deep Water, West Virginia
Current Conditions -  °F | °C
As of 8:51 AM on Thursday 27 Nov 2014 (Local Time) from KBKW Reporting Station
Light Snow Light Snow  
Wind Chill: 26°   Ceiling: 600
Heat Index: 32°   Visibility: 4mi
Dew Point: 29°   Wind: 7mph
Humidity: 88%   Direction: 340°NNW
Pressure: 30.02"   Gusts: NA
Location:  38.12°N, 81.26°W
Report Text: KBKW 271351Z AUTO 34006KT 4SM -SN BR BKN006 OVC019 00/M02 A3002 RMK AO2 SLP191 P0001 T00001017
Loading
Personal Weather Stations






























Interactive Weather Map New forecast layout! Learn more

10-Day Weather Forecast

Advertisements
Track Severe Weather on mobile